createdAt,value
2018-02-13T00:02:02.332Z,82.60
2018-02-13T00:04:30.036Z,91.03
2018-02-13T00:06:57.783Z,102.80
2018-02-13T00:09:25.489Z,95.33
2018-02-13T00:11:53.211Z,89.13
2018-02-13T00:14:20.777Z,110.90
2018-02-13T00:16:48.328Z,100.13
2018-02-13T00:19:15.941Z,112.60
2018-02-13T00:21:43.508Z,112.77
2018-02-13T00:24:11.073Z,116.93
2018-02-13T00:26:38.716Z,104.67
2018-02-13T00:29:07.638Z,105.73
2018-02-13T00:31:35.460Z,113.17
2018-02-13T00:34:03.068Z,109.17
2018-02-13T00:36:30.634Z,112.80
2018-02-13T00:38:58.504Z,110.93
2018-02-13T00:41:26.228Z,117.53
2018-02-13T00:43:53.997Z,114.20
2018-02-13T00:46:21.562Z,107.87
2018-02-13T00:48:49.121Z,105.57
2018-02-13T00:51:16.703Z,113.63
2018-02-13T00:53:44.284Z,115.63
2018-02-13T00:56:11.858Z,114.30
2018-02-13T00:58:39.421Z,113.60
2018-02-13T01:01:07.050Z,114.27
2018-02-13T01:03:34.617Z,111.60
2018-02-13T01:06:02.409Z,111.57
2018-02-13T01:08:29.977Z,119.57
2018-02-13T01:10:57.540Z,127.03
2018-02-13T01:13:25.114Z,113.07
2018-02-13T01:15:52.674Z,110.00
2018-02-13T01:18:20.309Z,113.80
2018-02-13T01:20:47.870Z,93.30
2018-02-13T01:23:15.630Z,110.60
2018-02-13T01:25:43.454Z,103.67
2018-02-13T01:28:11.171Z,91.77
2018-02-13T01:30:38.741Z,102.77
2018-02-13T01:33:06.301Z,112.17
2018-02-13T01:35:34.107Z,114.60
2018-02-13T01:38:01.685Z,127.70
2018-02-13T01:40:29.440Z,117.37
2018-02-13T01:42:57.178Z,122.20
2018-02-13T01:45:24.747Z,140.70
2018-02-13T01:47:52.321Z,125.75
2018-02-13T01:50:25.918Z,134.80
2018-02-13T01:52:53.772Z,115.67
2018-02-13T01:55:21.333Z,112.50
2018-02-13T01:57:49.076Z,116.90
2018-02-13T02:00:16.649Z,137.23
2018-02-13T02:02:44.445Z,153.93
2018-02-13T02:05:12.167Z,171.70
2018-02-13T02:07:39.725Z,268.77
2018-02-13T02:10:07.599Z,377.00
2018-02-13T02:12:35.207Z,318.40
2018-02-13T02:15:02.773Z,264.67
2018-02-13T02:17:30.379Z,140.27
2018-02-13T02:19:57.968Z,275.50
2018-02-13T02:22:25.561Z,216.97
2018-02-13T02:24:53.196Z,173.50
2018-02-13T02:27:20.926Z,144.07
2018-02-13T02:29:48.640Z,134.50
2018-02-13T02:32:16.190Z,130.80
2018-02-13T02:34:43.774Z,143.07
2018-02-13T02:37:11.595Z,141.60
2018-02-13T02:39:39.297Z,150.70
2018-02-13T02:42:06.865Z,130.97
2018-02-13T02:44:34.476Z,132.40
2018-02-13T02:47:02.038Z,124.63
2018-02-13T02:49:29.593Z,119.03
2018-02-13T02:51:57.401Z,121.73
2018-02-13T02:54:25.121Z,117.00
2018-02-13T02:56:52.681Z,110.37
2018-02-13T02:59:20.236Z,110.50
2018-02-13T03:01:47.959Z,110.93
2018-02-13T03:04:15.525Z,105.80
2018-02-13T03:06:43.100Z,105.27
2018-02-13T03:09:10.708Z,115.23
2018-02-13T03:11:38.266Z,112.23
2018-02-13T03:14:05.841Z,117.17
2018-02-13T03:16:33.580Z,112.17
2018-02-13T03:19:01.193Z,107.13
2018-02-13T03:21:28.916Z,99.60
2018-02-13T03:23:56.493Z,110.23
2018-02-13T03:26:24.065Z,106.63
2018-02-13T03:28:51.626Z,106.13
2018-02-13T03:31:19.389Z,112.70
2018-02-13T03:33:46.953Z,116.53
2018-02-13T03:36:14.615Z,106.27
2018-02-13T03:38:43.249Z,112.20
2018-02-13T03:41:10.814Z,116.50
2018-02-13T03:43:38.580Z,109.80
2018-02-13T03:46:06.137Z,113.80
2018-02-13T03:48:33.701Z,108.17
2018-02-13T03:51:01.392Z,106.23
2018-02-13T03:53:29.114Z,102.00
2018-02-13T03:55:56.665Z,99.40
2018-02-13T03:58:24.380Z,110.80
2018-02-13T04:00:51.960Z,103.83
2018-02-13T04:03:19.519Z,116.47
2018-02-13T04:05:47.134Z,103.63
2018-02-13T04:08:14.859Z,113.27
2018-02-13T04:10:42.413Z,108.27
2018-02-13T04:13:09.983Z,123.63
2018-02-13T04:15:37.815Z,111.97
2018-02-13T04:18:05.432Z,119.00
2018-02-13T04:20:32.990Z,107.73
2018-02-13T04:23:00.777Z,116.20
2018-02-13T04:25:28.588Z,115.43
2018-02-13T04:27:56.145Z,123.43
2018-02-13T04:30:23.761Z,112.13
2018-02-13T04:32:51.329Z,108.60
2018-02-13T04:35:19.135Z,101.18
2018-02-13T04:37:46.702Z,92.53
2018-02-13T04:40:14.378Z,101.30
2018-02-13T04:42:41.922Z,92.10
2018-02-13T04:45:09.481Z,97.43
2018-02-13T04:47:37.106Z,105.28
2018-02-13T04:50:04.680Z,113.70
2018-02-13T04:52:32.482Z,93.90
2018-02-13T04:55:00.053Z,105.60
2018-02-13T04:57:27.618Z,99.90
2018-02-13T04:59:55.182Z,110.47
2018-02-13T05:02:22.762Z,105.20
2018-02-13T05:04:50.382Z,103.73
2018-02-13T05:07:17.938Z,98.10
2018-02-13T05:09:45.608Z,102.82
2018-02-13T05:12:13.184Z,116.85
2018-02-13T05:14:40.914Z,94.77
2018-02-13T05:17:08.482Z,103.23
2018-02-13T05:19:36.070Z,100.57
2018-02-13T05:22:03.817Z,105.37
2018-02-13T05:24:31.382Z,104.67
2018-02-13T05:26:59.096Z,113.00
2018-02-13T05:29:26.811Z,108.97
2018-02-13T05:31:54.460Z,137.93
2018-02-13T05:34:22.286Z,135.67
2018-02-13T05:36:49.845Z,125.67
2018-02-13T05:39:17.724Z,124.63
2018-02-13T05:41:45.444Z,119.07
2018-02-13T05:44:13.259Z,113.97
2018-02-13T05:46:40.845Z,129.50
2018-02-13T05:49:08.477Z,116.83
2018-02-13T05:51:36.181Z,117.62
2018-02-13T05:54:03.760Z,104.87
2018-02-13T05:56:31.551Z,125.30
2018-02-13T05:58:59.117Z,109.10
2018-02-13T06:01:26.845Z,118.53
2018-02-13T06:03:54.420Z,129.90
2018-02-13T06:06:22.221Z,126.73
2018-02-13T06:08:49.777Z,126.63
2018-02-13T06:11:17.342Z,86.10
2018-02-13T06:13:44.897Z,102.70
2018-02-13T06:16:12.465Z,107.87
2018-02-13T06:18:40.068Z,121.73
2018-02-13T06:21:07.690Z,125.60
2018-02-13T06:23:35.246Z,95.23
2018-02-13T06:26:03.064Z,89.03
2018-02-13T06:28:30.673Z,94.07
2018-02-13T06:30:58.400Z,85.40
2018-02-13T06:33:26.118Z,83.00
2018-02-13T06:35:53.837Z,83.20
2018-02-13T06:38:21.454Z,78.20
2018-02-13T06:40:49.081Z,86.53
2018-02-13T06:43:16.891Z,83.77
2018-02-13T06:45:44.500Z,95.33
2018-02-13T06:48:12.226Z,76.43
2018-02-13T06:50:39.924Z,72.73
2018-02-13T06:53:07.668Z,62.67
2018-02-13T06:55:35.482Z,77.17
2018-02-13T06:58:03.091Z,59.37
2018-02-13T07:00:30.657Z,59.70
2018-02-13T07:02:58.438Z,56.27
2018-02-13T07:05:26.206Z,63.17
2018-02-13T07:07:53.775Z,64.93
2018-02-13T07:10:21.348Z,60.73
2018-02-13T07:12:48.999Z,53.97
2018-02-13T07:15:16.562Z,55.30
2018-02-13T07:17:44.343Z,55.67
2018-02-13T07:20:12.142Z,57.90
2018-02-13T07:22:39.702Z,49.40
2018-02-13T07:25:07.272Z,49.40
2018-02-13T07:27:34.893Z,53.27
2018-02-13T07:30:02.612Z,49.83
2018-02-13T07:32:30.195Z,47.23
2018-02-13T07:34:57.777Z,44.40
2018-02-13T07:37:25.362Z,49.60
2018-02-13T07:39:53.171Z,34.43
2018-02-13T07:42:20.923Z,27.00
2018-02-13T07:44:48.482Z,34.43
2018-02-13T07:47:17.227Z,41.67
2018-02-13T07:49:45.583Z,39.03
2018-02-13T07:52:13.193Z,34.27
2018-02-13T07:54:40.904Z,35.03
2018-02-13T07:57:08.838Z,30.80
2018-02-13T07:59:36.447Z,30.37
2018-02-13T08:02:04.188Z,31.90
2018-02-13T08:04:31.815Z,28.33
2018-02-13T08:06:59.815Z,30.93
2018-02-13T08:09:27.423Z,35.07
2018-02-13T08:11:55.248Z,33.43
2018-02-13T08:14:22.805Z,29.77
2018-02-13T08:16:50.584Z,30.77
2018-02-13T08:19:18.193Z,31.97
2018-02-13T08:21:46.020Z,30.03
2018-02-13T08:24:13.838Z,26.80
2018-02-13T08:26:41.656Z,24.60
2018-02-13T08:29:09.475Z,27.77
2018-02-13T08:31:37.087Z,33.13
2018-02-13T08:34:04.658Z,33.10
2018-02-13T08:36:32.309Z,27.47
2018-02-13T08:39:00.147Z,27.60
2018-02-13T08:41:27.811Z,21.67
2018-02-13T08:43:55.373Z,27.33
2018-02-13T08:46:22.981Z,21.90
2018-02-13T08:48:50.654Z,21.43
2018-02-13T08:51:18.437Z,21.27
2018-02-13T08:53:45.997Z,18.03
2018-02-13T08:56:13.609Z,59.63
2018-02-13T08:58:41.394Z,17.77
2018-02-13T09:01:08.953Z,13.33
2018-02-13T09:03:36.522Z,14.60
2018-02-13T09:06:04.095Z,13.93
2018-02-13T09:08:31.862Z,18.13
2018-02-13T09:10:59.482Z,20.40
2018-02-13T09:13:27.155Z,19.60
2018-02-13T09:15:54.791Z,19.17
2018-02-13T09:18:22.591Z,20.77
2018-02-13T09:20:50.502Z,14.90
2018-02-13T09:23:18.223Z,16.53
2018-02-13T09:25:46.060Z,20.37
2018-02-13T09:28:13.685Z,18.37
2018-02-13T09:30:41.329Z,20.47
2018-02-13T09:33:08.913Z,17.57
2018-02-13T09:35:36.719Z,14.40
2018-02-13T09:38:04.290Z,15.00
2018-02-13T09:40:31.847Z,13.03
2018-02-13T09:42:59.414Z,16.87
2018-02-13T09:45:27.033Z,14.80
2018-02-13T09:47:54.705Z,15.03
2018-02-13T09:50:22.281Z,16.37
2018-02-13T09:52:49.838Z,17.07
2018-02-13T09:55:17.689Z,18.17
2018-02-13T09:57:45.324Z,12.23
2018-02-13T10:00:12.961Z,15.73
2018-02-13T10:02:40.680Z,14.33
2018-02-13T10:05:08.319Z,13.97
2018-02-13T10:07:36.081Z,17.03
2018-02-13T10:10:03.938Z,16.20
2018-02-13T10:12:31.691Z,15.03
2018-02-13T10:14:59.554Z,24.97
2018-02-13T10:17:27.173Z,17.33
2018-02-13T10:19:54.782Z,15.33
2018-02-13T10:22:22.661Z,54.23
2018-02-13T10:24:50.481Z,13.83
2018-02-13T10:27:18.045Z,15.83
2018-02-13T10:29:45.817Z,16.90
2018-02-13T10:32:13.381Z,13.57
2018-02-13T10:34:41.655Z,15.17
2018-02-13T10:37:09.473Z,14.07
2018-02-13T10:39:37.173Z,18.37
2018-02-13T10:42:04.800Z,14.53
2018-02-13T10:44:32.365Z,14.00
2018-02-13T10:46:59.939Z,11.73
2018-02-13T10:49:27.501Z,14.77
2018-02-13T10:51:55.126Z,14.53
2018-02-13T10:54:22.791Z,14.43
2018-02-13T10:56:50.334Z,10.97
2018-02-13T10:59:17.932Z,14.40
2018-02-13T11:01:45.545Z,13.53
2018-02-13T11:04:13.113Z,15.23
2018-02-13T11:06:40.669Z,15.47
2018-02-13T11:09:08.298Z,13.23
2018-02-13T11:11:36.028Z,11.57
2018-02-13T11:14:03.642Z,12.03
2018-02-13T11:16:31.192Z,10.67
2018-02-13T11:18:58.775Z,10.53
2018-02-13T11:21:26.556Z,18.97
2018-02-13T11:23:54.117Z,15.10
2018-02-13T11:26:21.933Z,16.90
2018-02-13T11:28:49.506Z,13.20
2018-02-13T11:31:17.269Z,12.60
2018-02-13T11:33:44.841Z,16.13
2018-02-13T11:36:12.603Z,12.30
2018-02-13T11:38:40.247Z,14.43
2018-02-13T11:41:07.920Z,15.60
2018-02-13T11:43:35.508Z,18.73
2018-02-13T11:46:03.086Z,17.07
2018-02-13T11:48:30.673Z,16.20
2018-02-13T11:50:58.430Z,18.13
2018-02-13T11:53:26.229Z,19.20
2018-02-13T11:55:53.838Z,13.57
2018-02-13T11:58:21.567Z,15.33
2018-02-13T12:00:49.384Z,13.27
2018-02-13T12:03:17.094Z,17.40
2018-02-13T12:05:44.649Z,12.27
2018-02-13T12:08:12.538Z,12.43
2018-02-13T12:10:40.132Z,11.20
2018-02-13T12:13:07.758Z,13.70
2018-02-13T12:15:35.321Z,13.07
2018-02-13T12:18:02.901Z,12.50
2018-02-13T12:20:30.546Z,11.53
2018-02-13T12:22:58.111Z,19.13
2018-02-13T12:25:37.401Z,12.20
2018-02-13T12:28:05.318Z,13.47
2018-02-13T12:30:32.931Z,10.93
2018-02-13T12:33:00.498Z,10.57
2018-02-13T12:35:28.106Z,15.43
2018-02-13T12:37:55.995Z,10.63
2018-02-13T12:40:23.597Z,14.33
2018-02-13T12:42:51.201Z,13.47
2018-02-13T12:45:18.811Z,13.50
2018-02-13T12:47:46.530Z,11.17
2018-02-13T12:50:14.150Z,14.60
2018-02-13T12:52:41.725Z,13.43
2018-02-13T12:55:09.479Z,15.20
2018-02-13T12:57:37.062Z,10.63
2018-02-13T13:00:04.738Z,13.07
2018-02-13T13:02:32.300Z,14.73
2018-02-13T13:04:59.917Z,18.97
2018-02-13T13:07:27.489Z,23.97
2018-02-13T13:09:55.331Z,40.50
2018-02-13T13:12:22.985Z,18.33
2018-02-13T13:14:51.321Z,20.23
2018-02-13T13:17:19.095Z,12.57
2018-02-13T13:19:46.694Z,22.73
2018-02-13T13:22:14.263Z,18.90
2018-02-13T13:24:41.838Z,19.77
2018-02-13T13:27:09.390Z,29.47
2018-02-13T13:29:37.170Z,23.73
2018-02-13T13:32:04.893Z,25.00
2018-02-13T13:34:32.614Z,17.47
2018-02-13T13:37:00.334Z,18.07
2018-02-13T13:39:28.403Z,26.10
2018-02-13T13:41:56.079Z,28.13
2018-02-13T13:44:23.854Z,24.10
2018-02-13T13:46:51.457Z,21.33
2018-02-13T13:49:19.013Z,22.20
2018-02-13T13:51:46.754Z,18.63
2018-02-13T13:54:14.560Z,22.97
2018-02-13T13:56:42.281Z,22.67
2018-02-13T13:59:09.889Z,23.73
2018-02-13T14:01:37.714Z,19.53
2018-02-13T14:04:05.282Z,63.57
2018-02-13T14:06:32.884Z,31.00
2018-02-13T14:09:00.665Z,20.13
2018-02-13T14:11:28.325Z,19.07
2018-02-13T14:13:55.885Z,21.10
2018-02-13T14:16:23.514Z,19.13
2018-02-13T14:18:51.514Z,20.03
2018-02-13T14:21:19.259Z,18.10
2018-02-13T14:23:46.876Z,18.87
2018-02-13T14:26:14.419Z,16.17
2018-02-13T14:28:42.036Z,18.33
2018-02-13T14:31:09.763Z,22.23
2018-02-13T14:33:37.442Z,16.13
2018-02-13T14:36:05.159Z,20.73
2018-02-13T14:38:32.749Z,20.00
2018-02-13T14:41:00.395Z,20.47
2018-02-13T14:43:27.970Z,26.90
2018-02-13T14:45:55.543Z,18.33
2018-02-13T14:48:23.337Z,18.67
2018-02-13T14:50:50.912Z,19.10
2018-02-13T14:53:18.476Z,21.13
2018-02-13T14:55:46.045Z,21.53
2018-02-13T14:58:13.605Z,18.27
2018-02-13T15:00:41.848Z,19.37
2018-02-13T15:03:09.666Z,21.23
2018-02-13T15:05:37.486Z,17.37
2018-02-13T15:08:05.019Z,19.97
2018-02-13T15:10:32.709Z,22.73
2018-02-13T15:13:00.298Z,16.23
2018-02-13T15:15:29.683Z,21.57
2018-02-13T15:18:10.296Z,17.97
2018-02-13T15:20:37.918Z,26.20
2018-02-13T15:23:05.677Z,25.60
2018-02-13T15:25:33.245Z,17.30
2018-02-13T15:28:00.983Z,19.60
2018-02-13T15:30:28.608Z,23.33
2018-02-13T15:32:56.436Z,26.30
2018-02-13T15:35:23.998Z,22.47
2018-02-13T15:37:51.570Z,18.90
2018-02-13T15:40:19.275Z,19.37
2018-02-13T15:42:46.806Z,20.50
2018-02-13T15:45:14.627Z,22.10
2018-02-13T15:47:42.229Z,25.80
2018-02-13T15:50:09.796Z,25.57
2018-02-13T15:52:37.405Z,28.10
2018-02-13T15:55:04.970Z,26.70
2018-02-13T15:57:32.581Z,27.00
2018-02-13T16:00:00.214Z,27.13
2018-02-13T16:02:27.786Z,25.07
2018-02-13T16:04:55.673Z,26.23
2018-02-13T16:07:23.265Z,21.77
2018-02-13T16:09:50.825Z,25.23
2018-02-13T16:12:18.623Z,20.53
2018-02-13T16:14:46.246Z,25.30
2018-02-13T16:17:13.960Z,23.63
2018-02-13T16:19:41.526Z,19.50
2018-02-13T16:22:09.138Z,36.87
2018-02-13T16:24:36.737Z,36.33
2018-02-13T16:27:04.359Z,28.43
2018-02-13T16:29:31.938Z,31.23
2018-02-13T16:31:59.818Z,35.73
2018-02-13T16:34:27.586Z,27.60
2018-02-13T16:36:55.141Z,27.67
2018-02-13T16:39:22.902Z,25.43
2018-02-13T16:41:50.449Z,24.00
2018-02-13T16:44:18.014Z,23.30
2018-02-13T16:46:45.718Z,25.60
2018-02-13T16:49:13.466Z,25.57
2018-02-13T16:51:41.022Z,34.70
2018-02-13T16:54:08.725Z,24.40
2018-02-13T16:56:36.307Z,22.03
2018-02-13T16:59:03.871Z,26.07
2018-02-13T17:01:31.684Z,26.30
2018-02-13T17:03:59.261Z,29.00
2018-02-13T17:06:27.021Z,25.97
2018-02-13T17:08:54.738Z,30.97
2018-02-13T17:11:22.457Z,25.33
2018-02-13T17:13:50.333Z,33.57
2018-02-13T17:16:17.885Z,36.10
2018-02-13T17:18:45.442Z,21.17
2018-02-13T17:21:13.232Z,33.40
2018-02-13T17:23:40.845Z,26.47
2018-02-13T17:26:08.670Z,83.97
2018-02-13T17:28:36.230Z,30.90
2018-02-13T17:31:03.814Z,25.70
2018-02-13T17:33:31.487Z,27.53
2018-02-13T17:35:59.294Z,29.40
2018-02-13T17:38:26.968Z,25.93
2018-02-13T17:40:54.666Z,29.70
2018-02-13T17:43:22.330Z,29.53
2018-02-13T17:45:49.948Z,23.13
2018-02-13T17:48:17.514Z,29.13
2018-02-13T17:50:45.302Z,24.17
2018-02-13T17:53:13.122Z,17.73
2018-02-13T17:55:40.839Z,32.17
2018-02-13T17:58:08.441Z,24.50
2018-02-13T18:00:35.997Z,21.33
2018-02-13T18:03:03.560Z,38.77
2018-02-13T18:05:31.311Z,30.27
2018-02-13T18:07:59.029Z,29.07
2018-02-13T18:10:26.594Z,19.43
2018-02-13T18:12:54.256Z,22.13
2018-02-13T18:15:21.912Z,20.50
2018-02-13T18:17:49.622Z,44.90
2018-02-13T18:20:17.521Z,25.80
2018-02-13T18:22:45.338Z,20.53
2018-02-13T18:25:12.892Z,23.03
2018-02-13T18:27:40.470Z,42.90
2018-02-13T18:30:08.284Z,19.30
2018-02-13T18:32:35.889Z,20.73
2018-02-13T18:35:03.629Z,53.83
2018-02-13T18:37:31.195Z,25.30
2018-02-13T18:39:58.856Z,24.17
2018-02-13T18:42:26.421Z,44.77
2018-02-13T18:44:53.999Z,22.30
2018-02-13T18:47:21.561Z,47.17
2018-02-13T18:49:49.172Z,28.63
2018-02-13T18:54:44.472Z,58.43
2018-02-13T18:57:12.342Z,38.47
2018-02-13T18:59:40.111Z,43.37
2018-02-13T19:02:08.055Z,19.97
2018-02-13T19:04:35.852Z,37.77
2018-02-13T19:07:03.666Z,20.50
2018-02-13T19:09:31.225Z,18.87
2018-02-13T19:11:58.798Z,46.07
2018-02-13T19:14:26.619Z,23.00
2018-02-13T19:19:21.926Z,9.10
2018-02-13T19:21:49.646Z,19.37
2018-02-13T19:24:17.363Z,19.97
2018-02-13T19:26:44.991Z,9.70
2018-02-13T19:29:12.622Z,9.07
2018-02-13T19:31:40.418Z,10.77
2018-02-13T19:34:08.056Z,12.33
2018-02-13T19:36:35.743Z,15.77
2018-02-13T19:39:03.601Z,8.70
2018-02-13T19:41:31.197Z,9.20
2018-02-13T19:43:58.778Z,10.37
2018-02-13T19:46:26.393Z,8.23
2018-02-13T19:48:54.275Z,9.57
2018-02-13T19:51:21.859Z,10.60
2018-02-13T19:53:49.612Z,8.10
2018-02-13T19:56:17.197Z,12.77
2018-02-13T19:58:44.914Z,18.17
2018-02-13T20:01:12.630Z,11.20
2018-02-13T20:03:40.191Z,15.77
2018-02-13T20:06:07.817Z,10.83
2018-02-13T20:08:35.619Z,15.37
2018-02-13T20:11:03.545Z,11.30
2018-02-13T20:13:31.129Z,10.87
2018-02-13T20:15:58.690Z,11.77
2018-02-13T20:18:26.283Z,13.70
2018-02-13T20:20:54.114Z,13.73
2018-02-13T20:23:21.929Z,11.73
2018-02-13T20:25:49.758Z,17.67
2018-02-13T20:28:17.321Z,19.63
2018-02-13T20:30:45.053Z,18.90
2018-02-13T20:33:12.596Z,11.50
2018-02-13T20:35:40.410Z,21.47
2018-02-13T20:38:07.975Z,21.87
2018-02-13T20:40:35.701Z,13.93
2018-02-13T20:43:03.474Z,17.17
2018-02-13T20:45:31.294Z,9.77
2018-02-13T20:47:58.866Z,29.17
2018-02-13T20:50:26.480Z,25.33
2018-02-13T20:52:54.050Z,29.00
2018-02-13T20:55:21.866Z,24.50
2018-02-13T20:57:49.575Z,14.83
2018-02-13T21:00:17.161Z,19.07
2018-02-13T21:02:44.713Z,27.53
2018-02-13T21:05:12.287Z,32.60
2018-02-13T21:07:39.846Z,32.33
2018-02-13T21:10:07.413Z,34.47
2018-02-13T21:12:35.154Z,41.07
2018-02-13T21:15:02.766Z,59.10
2018-02-13T21:17:30.527Z,46.80
2018-02-13T21:19:58.246Z,39.93
2018-02-13T21:22:25.884Z,32.37
2018-02-13T21:24:53.683Z,26.63
2018-02-13T21:27:21.500Z,19.70
2018-02-13T21:29:49.063Z,17.53
2018-02-13T21:32:16.837Z,19.37
2018-02-13T21:34:44.566Z,17.90
2018-02-13T21:37:12.129Z,19.20
2018-02-13T21:39:39.891Z,19.07
2018-02-13T21:42:07.710Z,22.83
2018-02-13T21:44:35.451Z,20.30
2018-02-13T21:47:03.013Z,15.27
2018-02-13T21:49:30.573Z,18.67
2018-02-13T21:51:58.382Z,41.30
2018-02-13T21:54:26.201Z,22.87
2018-02-13T21:56:54.020Z,28.90
2018-02-13T21:59:21.575Z,31.40
2018-02-13T22:01:49.241Z,19.10
2018-02-13T22:04:16.798Z,26.87
2018-02-13T22:06:44.361Z,17.13
2018-02-13T22:09:11.950Z,17.00
2018-02-13T22:11:39.507Z,15.70
2018-02-13T22:14:07.081Z,14.50
2018-02-13T22:16:34.741Z,18.60
2018-02-13T22:19:02.346Z,18.53
2018-02-13T22:21:30.100Z,17.70
2018-02-13T22:23:57.931Z,16.97
2018-02-13T22:26:25.656Z,14.83
2018-02-13T22:28:53.373Z,15.03
2018-02-13T22:31:21.172Z,16.30
2018-02-13T22:33:48.733Z,14.97
2018-02-13T22:36:16.303Z,18.73
2018-02-13T22:38:43.878Z,18.37
2018-02-13T22:41:11.644Z,16.53
2018-02-13T22:43:39.254Z,19.03
2018-02-13T22:46:06.812Z,17.83
2018-02-13T22:48:34.410Z,22.73
2018-02-13T22:51:02.094Z,21.40
2018-02-13T22:53:29.693Z,21.17
2018-02-13T22:55:57.452Z,23.57
2018-02-13T22:58:25.046Z,20.90
2018-02-13T23:00:52.651Z,20.80
2018-02-13T23:03:20.212Z,22.23
2018-02-13T23:05:47.831Z,17.17
2018-02-13T23:08:15.390Z,17.47
2018-02-13T23:10:42.953Z,21.20
2018-02-13T23:13:10.521Z,17.47
2018-02-13T23:15:38.063Z,19.03
2018-02-13T23:18:05.629Z,18.07
2018-02-13T23:20:33.189Z,21.97
2018-02-13T23:23:00.817Z,24.40
2018-02-13T23:25:28.373Z,23.47
2018-02-13T23:27:56.184Z,21.67
2018-02-13T23:30:23.798Z,22.53
2018-02-13T23:32:51.358Z,26.43
2018-02-13T23:35:18.940Z,22.30
2018-02-13T23:37:46.499Z,24.00
2018-02-13T23:40:14.116Z,19.10
2018-02-13T23:42:41.892Z,22.07
2018-02-13T23:45:09.449Z,21.57
2018-02-13T23:47:37.227Z,24.20
2018-02-13T23:50:04.794Z,24.23
2018-02-13T23:52:32.358Z,24.37
2018-02-13T23:54:59.914Z,24.83
2018-02-13T23:57:27.498Z,31.33
2018-02-13T23:59:55.189Z,28.07
